sensor_id;sensor_type;location;lat;lon;timestamp;P1;durP1;ratioP1;P2;durP2;ratioP2
11496;SDS011;5805;51.542;7.230;2024-02-21T00:01:00;15.73;;;7.60;;
11496;SDS011;5805;51.542;7.230;2024-02-21T00:03:27;15.88;;;7.50;;
11496;SDS011;5805;51.542;7.230;2024-02-21T00:05:53;14.15;;;6.82;;
11496;SDS011;5805;51.542;7.230;2024-02-21T00:08:19;19.92;;;7.30;;
11496;SDS011;5805;51.542;7.230;2024-02-21T00:10:44;15.40;;;8.38;;
11496;SDS011;5805;51.542;7.230;2024-02-21T00:13:10;14.35;;;7.40;;
11496;SDS011;5805;51.542;7.230;2024-02-21T00:15:36;11.85;;;7.45;;
11496;SDS011;5805;51.542;7.230;2024-02-21T00:18:02;16.33;;;8.25;;
11496;SDS011;5805;51.542;7.230;2024-02-21T00:20:30;19.05;;;7.90;;
11496;SDS011;5805;51.542;7.230;2024-02-21T00:22:55;12.98;;;7.78;;
11496;SDS011;5805;51.542;7.230;2024-02-21T00:25:21;13.57;;;7.97;;
11496;SDS011;5805;51.542;7.230;2024-02-21T00:27:47;15.20;;;8.43;;
11496;SDS011;5805;51.542;7.230;2024-02-21T00:30:12;19.40;;;8.35;;
11496;SDS011;5805;51.542;7.230;2024-02-21T00:32:38;16.10;;;7.90;;
11496;SDS011;5805;51.542;7.230;2024-02-21T00:35:04;14.50;;;7.63;;
11496;SDS011;5805;51.542;7.230;2024-02-21T00:37:32;18.77;;;8.10;;
11496;SDS011;5805;51.542;7.230;2024-02-21T00:39:57;13.93;;;7.60;;
11496;SDS011;5805;51.542;7.230;2024-02-21T00:42:23;19.20;;;8.23;;
11496;SDS011;5805;51.542;7.230;2024-02-21T00:44:49;16.77;;;8.48;;
11496;SDS011;5805;51.542;7.230;2024-02-21T00:47:15;16.17;;;7.75;;
11496;SDS011;5805;51.542;7.230;2024-02-21T00:49:40;17.83;;;8.07;;
11496;SDS011;5805;51.542;7.230;2024-02-21T00:52:06;13.70;;;7.57;;
11496;SDS011;5805;51.542;7.230;2024-02-21T00:54:33;24.45;;;8.98;;
11496;SDS011;5805;51.542;7.230;2024-02-21T00:56:59;17.58;;;7.63;;
11496;SDS011;5805;51.542;7.230;2024-02-21T00:59:24;16.00;;;7.93;;
11496;SDS011;5805;51.542;7.230;2024-02-21T01:01:50;13.63;;;7.55;;
11496;SDS011;5805;51.542;7.230;2024-02-21T01:04:16;16.48;;;8.30;;
11496;SDS011;5805;51.542;7.230;2024-02-21T01:06:41;21.58;;;8.07;;
11496;SDS011;5805;51.542;7.230;2024-02-21T01:09:07;14.65;;;8.07;;
11496;SDS011;5805;51.542;7.230;2024-02-21T01:11:34;17.42;;;8.32;;
11496;SDS011;5805;51.542;7.230;2024-02-21T01:14:00;14.57;;;7.80;;
11496;SDS011;5805;51.542;7.230;2024-02-21T01:16:26;16.77;;;8.57;;
11496;SDS011;5805;51.542;7.230;2024-02-21T01:18:51;19.27;;;8.57;;
11496;SDS011;5805;51.542;7.230;2024-02-21T01:21:20;15.85;;;7.38;;
11496;SDS011;5805;51.542;7.230;2024-02-21T01:23:46;15.15;;;8.48;;
11496;SDS011;5805;51.542;7.230;2024-02-21T01:26:11;18.13;;;7.82;;
11496;SDS011;5805;51.542;7.230;2024-02-21T01:28:38;18.17;;;7.63;;
11496;SDS011;5805;51.542;7.230;2024-02-21T01:31:04;18.63;;;7.47;;
11496;SDS011;5805;51.542;7.230;2024-02-21T01:33:30;13.63;;;7.13;;
11496;SDS011;5805;51.542;7.230;2024-02-21T01:35:56;15.68;;;7.70;;
11496;SDS011;5805;51.542;7.230;2024-02-21T01:38:21;15.68;;;7.97;;
11496;SDS011;5805;51.542;7.230;2024-02-21T01:40:47;15.73;;;7.95;;
11496;SDS011;5805;51.542;7.230;2024-02-21T01:43:16;16.23;;;7.25;;
11496;SDS011;5805;51.542;7.230;2024-02-21T01:45:45;14.93;;;7.00;;
11496;SDS011;5805;51.542;7.230;2024-02-21T01:48:14;14.30;;;6.72;;
11496;SDS011;5805;51.542;7.230;2024-02-21T01:50:40;16.25;;;7.57;;
11496;SDS011;5805;51.542;7.230;2024-02-21T01:53:05;15.25;;;7.90;;
11496;SDS011;5805;51.542;7.230;2024-02-21T01:55:32;16.63;;;7.18;;
11496;SDS011;5805;51.542;7.230;2024-02-21T01:57:58;14.23;;;7.25;;
11496;SDS011;5805;51.542;7.230;2024-02-21T02:00:24;16.60;;;7.43;;
11496;SDS011;5805;51.542;7.230;2024-02-21T02:02:51;16.50;;;7.35;;
11496;SDS011;5805;51.542;7.230;2024-02-21T02:05:17;20.73;;;7.70;;
11496;SDS011;5805;51.542;7.230;2024-02-21T02:07:43;13.57;;;6.93;;
11496;SDS011;5805;51.542;7.230;2024-02-21T02:10:09;13.30;;;6.63;;
11496;SDS011;5805;51.542;7.230;2024-02-21T02:12:35;11.02;;;6.50;;
11496;SDS011;5805;51.542;7.230;2024-02-21T02:15:01;14.23;;;7.50;;
11496;SDS011;5805;51.542;7.230;2024-02-21T02:17:28;15.23;;;7.32;;
11496;SDS011;5805;51.542;7.230;2024-02-21T02:19:55;12.35;;;6.70;;
11496;SDS011;5805;51.542;7.230;2024-02-21T02:22:22;12.68;;;7.28;;
11496;SDS011;5805;51.542;7.230;2024-02-21T02:24:52;15.60;;;7.55;;
11496;SDS011;5805;51.542;7.230;2024-02-21T02:27:18;13.50;;;7.15;;
11496;SDS011;5805;51.542;7.230;2024-02-21T02:29:43;15.40;;;6.63;;
11496;SDS011;5805;51.542;7.230;2024-02-21T02:32:09;17.75;;;7.57;;
11496;SDS011;5805;51.542;7.230;2024-02-21T02:34:36;14.63;;;6.95;;
11496;SDS011;5805;51.542;7.230;2024-02-21T02:37:01;18.35;;;7.75;;
11496;SDS011;5805;51.542;7.230;2024-02-21T02:39:27;13.50;;;6.40;;
11496;SDS011;5805;51.542;7.230;2024-02-21T02:41:55;15.10;;;7.38;;
11496;SDS011;5805;51.542;7.230;2024-02-21T02:44:20;14.73;;;7.22;;
11496;SDS011;5805;51.542;7.230;2024-02-21T02:46:46;13.93;;;6.68;;
11496;SDS011;5805;51.542;7.230;2024-02-21T02:49:12;15.35;;;6.68;;
11496;SDS011;5805;51.542;7.230;2024-02-21T02:51:40;16.25;;;7.25;;
11496;SDS011;5805;51.542;7.230;2024-02-21T02:54:06;13.50;;;7.05;;
11496;SDS011;5805;51.542;7.230;2024-02-21T02:56:32;14.20;;;7.25;;
11496;SDS011;5805;51.542;7.230;2024-02-21T02:58:59;13.38;;;6.78;;
11496;SDS011;5805;51.542;7.230;2024-02-21T03:01:25;13.88;;;7.22;;
11496;SDS011;5805;51.542;7.230;2024-02-21T03:03:50;16.83;;;7.25;;
11496;SDS011;5805;51.542;7.230;2024-02-21T03:06:16;17.73;;;7.43;;
11496;SDS011;5805;51.542;7.230;2024-02-21T03:08:42;13.07;;;6.22;;
11496;SDS011;5805;51.542;7.230;2024-02-21T03:11:07;14.65;;;6.82;;
11496;SDS011;5805;51.542;7.230;2024-02-21T03:13:33;14.75;;;6.60;;
11496;SDS011;5805;51.542;7.230;2024-02-21T03:16:00;16.92;;;7.00;;
11496;SDS011;5805;51.542;7.230;2024-02-21T03:18:26;17.13;;;7.05;;
11496;SDS011;5805;51.542;7.230;2024-02-21T03:20:52;13.30;;;6.97;;
11496;SDS011;5805;51.542;7.230;2024-02-21T03:23:17;11.85;;;6.85;;
11496;SDS011;5805;51.542;7.230;2024-02-21T03:25:43;15.93;;;6.38;;
11496;SDS011;5805;51.542;7.230;2024-02-21T03:28:09;12.63;;;6.55;;
11496;SDS011;5805;51.542;7.230;2024-02-21T03:30:34;12.55;;;6.50;;
11496;SDS011;5805;51.542;7.230;2024-02-21T03:33:02;17.70;;;7.43;;
11496;SDS011;5805;51.542;7.230;2024-02-21T03:35:28;14.60;;;6.50;;
11496;SDS011;5805;51.542;7.230;2024-02-21T03:37:54;16.27;;;6.65;;
11496;SDS011;5805;51.542;7.230;2024-02-21T03:40:19;14.57;;;5.95;;
11496;SDS011;5805;51.542;7.230;2024-02-21T03:42:45;11.35;;;6.47;;
11496;SDS011;5805;51.542;7.230;2024-02-21T03:45:11;12.00;;;6.03;;
11496;SDS011;5805;51.542;7.230;2024-02-21T03:47:36;14.75;;;5.88;;
11496;SDS011;5805;51.542;7.230;2024-02-21T03:50:04;20.90;;;7.05;;
11496;SDS011;5805;51.542;7.230;2024-02-21T03:52:30;11.70;;;5.97;;
11496;SDS011;5805;51.542;7.230;2024-02-21T03:54:56;15.88;;;6.82;;
11496;SDS011;5805;51.542;7.230;2024-02-21T03:57:22;10.02;;;5.82;;
11496;SDS011;5805;51.542;7.230;2024-02-21T03:59:49;11.02;;;6.00;;
11496;SDS011;5805;51.542;7.230;2024-02-21T04:02:15;14.73;;;6.68;;
11496;SDS011;5805;51.542;7.230;2024-02-21T04:04:42;16.17;;;6.50;;
11496;SDS011;5805;51.542;7.230;2024-02-21T04:07:09;12.52;;;6.13;;
11496;SDS011;5805;51.542;7.230;2024-02-21T04:09:35;17.48;;;6.47;;
11496;SDS011;5805;51.542;7.230;2024-02-21T04:12:01;15.25;;;6.28;;
11496;SDS011;5805;51.542;7.230;2024-02-21T04:14:27;12.02;;;6.03;;
11496;SDS011;5805;51.542;7.230;2024-02-21T04:16:52;13.18;;;5.85;;
11496;SDS011;5805;51.542;7.230;2024-02-21T04:19:18;9.68;;;5.78;;
11496;SDS011;5805;51.542;7.230;2024-02-21T04:21:44;13.27;;;5.50;;
11496;SDS011;5805;51.542;7.230;2024-02-21T04:24:11;10.02;;;5.65;;
11496;SDS011;5805;51.542;7.230;2024-02-21T04:26:36;13.63;;;5.82;;
11496;SDS011;5805;51.542;7.230;2024-02-21T04:29:02;9.35;;;5.47;;
11496;SDS011;5805;51.542;7.230;2024-02-21T04:31:28;11.02;;;5.78;;
11496;SDS011;5805;51.542;7.230;2024-02-21T04:33:54;11.73;;;5.20;;
11496;SDS011;5805;51.542;7.230;2024-02-21T04:36:19;9.70;;;5.70;;
11496;SDS011;5805;51.542;7.230;2024-02-21T04:38:45;12.10;;;6.32;;
11496;SDS011;5805;51.542;7.230;2024-02-21T04:41:12;14.00;;;5.90;;
11496;SDS011;5805;51.542;7.230;2024-02-21T04:43:38;9.35;;;5.78;;
11496;SDS011;5805;51.542;7.230;2024-02-21T04:46:04;13.20;;;6.22;;
11496;SDS011;5805;51.542;7.230;2024-02-21T04:48:29;11.68;;;6.60;;
11496;SDS011;5805;51.542;7.230;2024-02-21T04:50:55;15.27;;;5.63;;
11496;SDS011;5805;51.542;7.230;2024-02-21T04:53:21;12.70;;;5.38;;
11496;SDS011;5805;51.542;7.230;2024-02-21T04:55:46;11.45;;;5.35;;
11496;SDS011;5805;51.542;7.230;2024-02-21T04:58:13;11.75;;;4.90;;
11496;SDS011;5805;51.542;7.230;2024-02-21T05:00:39;17.25;;;5.72;;
11496;SDS011;5805;51.542;7.230;2024-02-21T05:03:05;9.98;;;5.05;;
11496;SDS011;5805;51.542;7.230;2024-02-21T05:05:30;16.55;;;5.45;;
11496;SDS011;5805;51.542;7.230;2024-02-21T05:07:56;10.07;;;5.25;;
11496;SDS011;5805;51.542;7.230;2024-02-21T05:10:22;6.95;;;4.95;;
11496;SDS011;5805;51.542;7.230;2024-02-21T05:12:47;11.45;;;5.47;;
11496;SDS011;5805;51.542;7.230;2024-02-21T05:15:15;11.63;;;4.90;;
11496;SDS011;5805;51.542;7.230;2024-02-21T05:17:40;7.20;;;4.57;;
11496;SDS011;5805;51.542;7.230;2024-02-21T05:20:06;11.60;;;5.32;;
11496;SDS011;5805;51.542;7.230;2024-02-21T05:22:33;11.35;;;4.70;;
11496;SDS011;5805;51.542;7.230;2024-02-21T05:24:58;9.57;;;4.40;;
11496;SDS011;5805;51.542;7.230;2024-02-21T05:27:24;9.00;;;4.82;;
11496;SDS011;5805;51.542;7.230;2024-02-21T05:29:49;10.93;;;5.05;;
11496;SDS011;5805;51.542;7.230;2024-02-21T05:32:17;10.20;;;5.13;;
11496;SDS011;5805;51.542;7.230;2024-02-21T05:34:42;7.03;;;4.43;;
11496;SDS011;5805;51.542;7.230;2024-02-21T05:37:08;9.27;;;5.03;;
11496;SDS011;5805;51.542;7.230;2024-02-21T05:39:34;10.43;;;4.55;;
11496;SDS011;5805;51.542;7.230;2024-02-21T05:41:59;11.48;;;4.32;;
11496;SDS011;5805;51.542;7.230;2024-02-21T05:44:25;9.73;;;4.22;;
11496;SDS011;5805;51.542;7.230;2024-02-21T05:46:51;11.32;;;4.70;;
11496;SDS011;5805;51.542;7.230;2024-02-21T05:49:18;10.15;;;4.90;;
11496;SDS011;5805;51.542;7.230;2024-02-21T05:51:43;9.20;;;4.68;;
11496;SDS011;5805;51.542;7.230;2024-02-21T05:54:09;9.00;;;4.63;;
11496;SDS011;5805;51.542;7.230;2024-02-21T05:56:35;9.27;;;4.70;;
11496;SDS011;5805;51.542;7.230;2024-02-21T05:59:00;8.77;;;4.72;;
11496;SDS011;5805;51.542;7.230;2024-02-21T06:01:27;9.98;;;5.07;;
11496;SDS011;5805;51.542;7.230;2024-02-21T06:03:53;9.60;;;4.05;;
11496;SDS011;5805;51.542;7.230;2024-02-21T06:06:20;7.75;;;3.72;;
11496;SDS011;5805;51.542;7.230;2024-02-21T06:08:45;7.50;;;3.67;;
11496;SDS011;5805;51.542;7.230;2024-02-21T06:11:11;12.50;;;4.38;;
11496;SDS011;5805;51.542;7.230;2024-02-21T06:13:37;13.00;;;3.95;;
11496;SDS011;5805;51.542;7.230;2024-02-21T06:16:04;7.88;;;4.13;;
11496;SDS011;5805;51.542;7.230;2024-02-21T06:18:31;7.40;;;3.97;;
11496;SDS011;5805;51.542;7.230;2024-02-21T06:20:56;7.82;;;4.18;;
11496;SDS011;5805;51.542;7.230;2024-02-21T06:23:24;8.00;;;3.97;;
11496;SDS011;5805;51.542;7.230;2024-02-21T06:25:49;6.70;;;3.53;;
11496;SDS011;5805;51.542;7.230;2024-02-21T06:28:15;7.40;;;3.35;;
11496;SDS011;5805;51.542;7.230;2024-02-21T06:30:41;7.70;;;3.45;;
11496;SDS011;5805;51.542;7.230;2024-02-21T06:33:06;6.95;;;3.15;;
11496;SDS011;5805;51.542;7.230;2024-02-21T06:35:32;7.50;;;3.70;;
11496;SDS011;5805;51.542;7.230;2024-02-21T06:37:58;5.88;;;3.60;;
11496;SDS011;5805;51.542;7.230;2024-02-21T06:40:25;6.63;;;3.70;;
11496;SDS011;5805;51.542;7.230;2024-02-21T06:42:50;8.50;;;3.65;;
11496;SDS011;5805;51.542;7.230;2024-02-21T06:45:16;7.18;;;3.47;;
11496;SDS011;5805;51.542;7.230;2024-02-21T06:47:42;9.23;;;3.85;;
11496;SDS011;5805;51.542;7.230;2024-02-21T06:50:08;9.68;;;3.45;;
11496;SDS011;5805;51.542;7.230;2024-02-21T06:52:34;7.53;;;3.63;;
11496;SDS011;5805;51.542;7.230;2024-02-21T06:55:00;6.93;;;3.80;;
11496;SDS011;5805;51.542;7.230;2024-02-21T06:57:28;6.95;;;3.63;;
11496;SDS011;5805;51.542;7.230;2024-02-21T06:59:54;7.95;;;3.22;;
11496;SDS011;5805;51.542;7.230;2024-02-21T07:02:19;6.63;;;3.63;;
11496;SDS011;5805;51.542;7.230;2024-02-21T07:04:45;8.75;;;3.28;;
11496;SDS011;5805;51.542;7.230;2024-02-21T07:07:11;6.57;;;3.28;;
11496;SDS011;5805;51.542;7.230;2024-02-21T07:09:36;8.35;;;3.33;;
11496;SDS011;5805;51.542;7.230;2024-02-21T07:12:03;7.57;;;3.42;;
11496;SDS011;5805;51.542;7.230;2024-02-21T07:14:31;6.82;;;3.58;;
11496;SDS011;5805;51.542;7.230;2024-02-21T07:16:57;6.30;;;3.20;;
11496;SDS011;5805;51.542;7.230;2024-02-21T07:19:23;7.10;;;3.60;;
11496;SDS011;5805;51.542;7.230;2024-02-21T07:21:48;8.10;;;3.90;;
11496;SDS011;5805;51.542;7.230;2024-02-21T07:24:14;7.50;;;3.17;;
11496;SDS011;5805;51.542;7.230;2024-02-21T07:26:41;11.82;;;3.83;;
11496;SDS011;5805;51.542;7.230;2024-02-21T07:29:07;9.98;;;3.42;;
11496;SDS011;5805;51.542;7.230;2024-02-21T07:31:39;8.35;;;4.18;;
11496;SDS011;5805;51.542;7.230;2024-02-21T07:34:05;9.50;;;3.72;;
11496;SDS011;5805;51.542;7.230;2024-02-21T07:36:31;9.18;;;3.78;;
11496;SDS011;5805;51.542;7.230;2024-02-21T07:38:57;9.93;;;3.88;;
11496;SDS011;5805;51.542;7.230;2024-02-21T07:41:23;9.35;;;4.07;;
11496;SDS011;5805;51.542;7.230;2024-02-21T07:43:48;6.90;;;3.20;;
11496;SDS011;5805;51.542;7.230;2024-02-21T07:46:14;12.93;;;4.25;;
11496;SDS011;5805;51.542;7.230;2024-02-21T07:48:41;6.28;;;3.30;;
11496;SDS011;5805;51.542;7.230;2024-02-21T07:51:07;10.35;;;4.00;;
11496;SDS011;5805;51.542;7.230;2024-02-21T07:53:32;7.43;;;3.45;;
11496;SDS011;5805;51.542;7.230;2024-02-21T07:55:58;7.18;;;3.28;;
11496;SDS011;5805;51.542;7.230;2024-02-21T07:58:24;9.10;;;4.00;;
11496;SDS011;5805;51.542;7.230;2024-02-21T08:00:50;6.15;;;3.13;;
11496;SDS011;5805;51.542;7.230;2024-02-21T08:03:16;9.73;;;3.90;;
11496;SDS011;5805;51.542;7.230;2024-02-21T08:05:43;10.95;;;3.55;;
11496;SDS011;5805;51.542;7.230;2024-02-21T08:08:08;10.18;;;3.95;;
11496;SDS011;5805;51.542;7.230;2024-02-21T08:10:34;7.90;;;3.47;;
11496;SDS011;5805;51.542;7.230;2024-02-21T08:13:00;6.47;;;3.90;;
11496;SDS011;5805;51.542;7.230;2024-02-21T08:15:26;6.63;;;3.20;;
11496;SDS011;5805;51.542;7.230;2024-02-21T08:17:52;7.53;;;3.28;;
11496;SDS011;5805;51.542;7.230;2024-02-21T08:20:17;8.65;;;3.70;;
11496;SDS011;5805;51.542;7.230;2024-02-21T08:22:46;5.88;;;3.38;;
11496;SDS011;5805;51.542;7.230;2024-02-21T08:25:12;14.57;;;3.63;;
11496;SDS011;5805;51.542;7.230;2024-02-21T08:27:38;7.97;;;3.00;;
11496;SDS011;5805;51.542;7.230;2024-02-21T08:30:04;8.25;;;3.05;;
11496;SDS011;5805;51.542;7.230;2024-02-21T08:32:30;6.05;;;3.00;;
11496;SDS011;5805;51.542;7.230;2024-02-21T08:34:56;6.82;;;3.30;;
11496;SDS011;5805;51.542;7.230;2024-02-21T08:37:21;6.20;;;2.88;;
11496;SDS011;5805;51.542;7.230;2024-02-21T08:39:48;5.93;;;2.53;;
11496;SDS011;5805;51.542;7.230;2024-02-21T08:42:14;7.35;;;3.13;;
11496;SDS011;5805;51.542;7.230;2024-02-21T08:44:40;7.10;;;3.10;;
11496;SDS011;5805;51.542;7.230;2024-02-21T08:47:05;7.50;;;2.90;;
11496;SDS011;5805;51.542;7.230;2024-02-21T08:49:31;6.22;;;3.25;;
11496;SDS011;5805;51.542;7.230;2024-02-21T08:51:57;13.20;;;3.28;;
11496;SDS011;5805;51.542;7.230;2024-02-21T08:54:23;7.50;;;3.20;;
11496;SDS011;5805;51.542;7.230;2024-02-21T08:56:50;10.23;;;3.10;;
11496;SDS011;5805;51.542;7.230;2024-02-21T08:59:15;6.05;;;3.08;;
11496;SDS011;5805;51.542;7.230;2024-02-21T09:01:41;5.13;;;2.53;;
11496;SDS011;5805;51.542;7.230;2024-02-21T09:04:07;7.57;;;2.38;;
11496;SDS011;5805;51.542;7.230;2024-02-21T09:06:33;4.93;;;2.53;;
11496;SDS011;5805;51.542;7.230;2024-02-21T09:08:58;6.50;;;2.95;;
11496;SDS011;5805;51.542;7.230;2024-02-21T09:11:24;7.90;;;2.75;;
11496;SDS011;5805;51.542;7.230;2024-02-21T09:13:51;5.70;;;2.80;;
11496;SDS011;5805;51.542;7.230;2024-02-21T09:16:17;5.82;;;2.90;;
11496;SDS011;5805;51.542;7.230;2024-02-21T09:18:44;6.97;;;3.40;;
11496;SDS011;5805;51.542;7.230;2024-02-21T09:21:09;5.68;;;2.92;;
11496;SDS011;5805;51.542;7.230;2024-02-21T09:23:35;5.35;;;2.47;;
11496;SDS011;5805;51.542;7.230;2024-02-21T09:26:00;6.97;;;3.03;;
11496;SDS011;5805;51.542;7.230;2024-02-21T09:28:26;7.25;;;3.03;;
11496;SDS011;5805;51.542;7.230;2024-02-21T09:30:56;8.30;;;3.47;;
11496;SDS011;5805;51.542;7.230;2024-02-21T09:33:22;7.45;;;3.40;;
11496;SDS011;5805;51.542;7.230;2024-02-21T09:35:47;11.70;;;3.25;;
11496;SDS011;5805;51.542;7.230;2024-02-21T09:38:13;6.88;;;3.63;;
11496;SDS011;5805;51.542;7.230;2024-02-21T09:40:39;7.93;;;3.20;;
11496;SDS011;5805;51.542;7.230;2024-02-21T09:43:04;6.97;;;3.80;;
11496;SDS011;5805;51.542;7.230;2024-02-21T09:45:30;9.50;;;3.30;;
11496;SDS011;5805;51.542;7.230;2024-02-21T09:48:01;8.38;;;3.65;;
11496;SDS011;5805;51.542;7.230;2024-02-21T09:50:44;8.48;;;3.15;;
11496;SDS011;5805;51.542;7.230;2024-02-21T09:53:12;5.38;;;2.75;;
11496;SDS011;5805;51.542;7.230;2024-02-21T09:55:38;7.47;;;2.97;;
11496;SDS011;5805;51.542;7.230;2024-02-21T09:58:04;11.45;;;3.47;;
11496;SDS011;5805;51.542;7.230;2024-02-21T10:00:30;9.80;;;3.60;;
11496;SDS011;5805;51.542;7.230;2024-02-21T10:02:56;6.57;;;3.80;;
11496;SDS011;5805;51.542;7.230;2024-02-21T10:05:24;8.77;;;3.40;;
11496;SDS011;5805;51.542;7.230;2024-02-21T10:07:50;6.25;;;3.25;;
11496;SDS011;5805;51.542;7.230;2024-02-21T10:10:16;9.15;;;3.60;;
11496;SDS011;5805;51.542;7.230;2024-02-21T10:12:48;10.30;;;3.55;;
11496;SDS011;5805;51.542;7.230;2024-02-21T10:15:19;8.18;;;4.13;;
11496;SDS011;5805;51.542;7.230;2024-02-21T10:17:45;9.85;;;4.47;;
11496;SDS011;5805;51.542;7.230;2024-02-21T10:20:11;7.43;;;3.85;;
11496;SDS011;5805;51.542;7.230;2024-02-21T10:22:39;6.22;;;3.40;;
11496;SDS011;5805;51.542;7.230;2024-02-21T10:25:08;8.07;;;3.97;;
11496;SDS011;5805;51.542;7.230;2024-02-21T10:27:34;9.30;;;4.20;;
11496;SDS011;5805;51.542;7.230;2024-02-21T10:29:59;14.23;;;4.43;;
11496;SDS011;5805;51.542;7.230;2024-02-21T10:32:25;9.68;;;3.88;;
11496;SDS011;5805;51.542;7.230;2024-02-21T10:35:00;9.98;;;4.85;;
11496;SDS011;5805;51.542;7.230;2024-02-21T10:37:26;10.52;;;4.82;;
11496;SDS011;5805;51.542;7.230;2024-02-21T10:39:53;10.18;;;5.10;;
11496;SDS011;5805;51.542;7.230;2024-02-21T10:42:19;11.10;;;4.85;;
11496;SDS011;5805;51.542;7.230;2024-02-21T10:44:47;7.63;;;4.50;;
11496;SDS011;5805;51.542;7.230;2024-02-21T10:47:16;6.13;;;3.83;;
11496;SDS011;5805;51.542;7.230;2024-02-21T10:49:42;5.93;;;3.38;;
11496;SDS011;5805;51.542;7.230;2024-02-21T10:52:12;5.47;;;2.60;;
11496;SDS011;5805;51.542;7.230;2024-02-21T10:54:43;6.97;;;3.17;;
11496;SDS011;5805;51.542;7.230;2024-02-21T10:57:11;6.30;;;2.83;;
11496;SDS011;5805;51.542;7.230;2024-02-21T10:59:38;7.13;;;2.83;;
11496;SDS011;5805;51.542;7.230;2024-02-21T11:02:05;4.35;;;2.63;;
11496;SDS011;5805;51.542;7.230;2024-02-21T11:04:31;6.45;;;2.63;;
11496;SDS011;5805;51.542;7.230;2024-02-21T11:06:58;3.88;;;2.35;;
11496;SDS011;5805;51.542;7.230;2024-02-21T11:09:29;5.78;;;2.50;;
11496;SDS011;5805;51.542;7.230;2024-02-21T11:11:55;5.43;;;2.45;;
11496;SDS011;5805;51.542;7.230;2024-02-21T11:14:22;3.80;;;2.28;;
11496;SDS011;5805;51.542;7.230;2024-02-21T11:16:52;3.88;;;2.25;;
11496;SDS011;5805;51.542;7.230;2024-02-21T11:19:21;5.35;;;2.60;;
11496;SDS011;5805;51.542;7.230;2024-02-21T11:21:47;3.83;;;2.22;;
11496;SDS011;5805;51.542;7.230;2024-02-21T11:24:13;5.25;;;2.53;;
11496;SDS011;5805;51.542;7.230;2024-02-21T11:26:50;4.28;;;2.35;;
11496;SDS011;5805;51.542;7.230;2024-02-21T11:29:16;5.25;;;2.80;;
11496;SDS011;5805;51.542;7.230;2024-02-21T11:31:49;6.60;;;2.40;;
11496;SDS011;5805;51.542;7.230;2024-02-21T11:34:17;4.20;;;2.60;;
11496;SDS011;5805;51.542;7.230;2024-02-21T11:36:47;5.82;;;2.60;;
11496;SDS011;5805;51.542;7.230;2024-02-21T11:39:17;6.18;;;2.60;;
11496;SDS011;5805;51.542;7.230;2024-02-21T11:41:46;4.88;;;2.63;;
11496;SDS011;5805;51.542;7.230;2024-02-21T11:44:12;4.65;;;2.70;;
11496;SDS011;5805;51.542;7.230;2024-02-21T11:46:39;4.90;;;3.53;;
11496;SDS011;5805;51.542;7.230;2024-02-21T11:49:05;5.07;;;2.83;;
11496;SDS011;5805;51.542;7.230;2024-02-21T11:51:31;5.40;;;2.72;;
11496;SDS011;5805;51.542;7.230;2024-02-21T11:53:57;7.05;;;3.03;;
11496;SDS011;5805;51.542;7.230;2024-02-21T11:56:23;7.85;;;2.92;;
11496;SDS011;5805;51.542;7.230;2024-02-21T11:58:48;5.85;;;2.58;;
11496;SDS011;5805;51.542;7.230;2024-02-21T12:01:15;4.68;;;2.70;;
11496;SDS011;5805;51.542;7.230;2024-02-21T12:03:42;7.47;;;2.83;;
11496;SDS011;5805;51.542;7.230;2024-02-21T12:06:07;8.20;;;2.97;;
11496;SDS011;5805;51.542;7.230;2024-02-21T12:08:40;5.55;;;2.67;;
11496;SDS011;5805;51.542;7.230;2024-02-21T12:11:15;3.78;;;2.35;;
11496;SDS011;5805;51.542;7.230;2024-02-21T12:13:41;7.53;;;2.65;;
11496;SDS011;5805;51.542;7.230;2024-02-21T12:16:07;5.82;;;2.58;;
11496;SDS011;5805;51.542;7.230;2024-02-21T12:18:33;4.63;;;2.22;;
11496;SDS011;5805;51.542;7.230;2024-02-21T12:21:00;5.05;;;2.50;;
11496;SDS011;5805;51.542;7.230;2024-02-21T12:23:26;9.77;;;2.90;;
11496;SDS011;5805;51.542;7.230;2024-02-21T12:25:52;3.63;;;2.40;;
11496;SDS011;5805;51.542;7.230;2024-02-21T12:28:18;6.25;;;2.53;;
11496;SDS011;5805;51.542;7.230;2024-02-21T12:30:43;5.15;;;2.42;;
11496;SDS011;5805;51.542;7.230;2024-02-21T12:33:09;7.82;;;2.30;;
11496;SDS011;5805;51.542;7.230;2024-02-21T12:35:35;5.95;;;2.78;;
11496;SDS011;5805;51.542;7.230;2024-02-21T12:38:02;6.40;;;2.20;;
11496;SDS011;5805;51.542;7.230;2024-02-21T12:40:28;6.05;;;2.55;;
11496;SDS011;5805;51.542;7.230;2024-02-21T12:42:53;5.53;;;2.50;;
11496;SDS011;5805;51.542;7.230;2024-02-21T12:45:19;6.25;;;2.40;;
11496;SDS011;5805;51.542;7.230;2024-02-21T12:47:45;9.70;;;2.60;;
11496;SDS011;5805;51.542;7.230;2024-02-21T12:50:10;5.60;;;2.17;;
11496;SDS011;5805;51.542;7.230;2024-02-21T12:52:36;5.00;;;2.10;;
11496;SDS011;5805;51.542;7.230;2024-02-21T12:55:03;5.60;;;2.15;;
11496;SDS011;5805;51.542;7.230;2024-02-21T12:57:30;6.80;;;2.53;;
11496;SDS011;5805;51.542;7.230;2024-02-21T12:59:56;6.45;;;1.95;;
11496;SDS011;5805;51.542;7.230;2024-02-21T13:02:21;3.42;;;1.95;;
11496;SDS011;5805;51.542;7.230;2024-02-21T13:04:47;7.70;;;2.30;;
11496;SDS011;5805;51.542;7.230;2024-02-21T13:07:13;5.07;;;1.83;;
11496;SDS011;5805;51.542;7.230;2024-02-21T13:09:38;3.35;;;1.77;;
11496;SDS011;5805;51.542;7.230;2024-02-21T13:12:05;4.85;;;2.00;;
11496;SDS011;5805;51.542;7.230;2024-02-21T13:14:31;6.88;;;2.35;;
11496;SDS011;5805;51.542;7.230;2024-02-21T13:16:57;5.82;;;2.35;;
11496;SDS011;5805;51.542;7.230;2024-02-21T13:19:23;4.05;;;2.15;;
11496;SDS011;5805;51.542;7.230;2024-02-21T13:21:48;3.78;;;2.15;;
11496;SDS011;5805;51.542;7.230;2024-02-21T13:24:14;5.10;;;2.20;;
11496;SDS011;5805;51.542;7.230;2024-02-21T13:26:40;6.35;;;2.47;;
11496;SDS011;5805;51.542;7.230;2024-02-21T13:29:07;5.95;;;2.13;;
11496;SDS011;5805;51.542;7.230;2024-02-21T13:31:33;4.35;;;2.30;;
11496;SDS011;5805;51.542;7.230;2024-02-21T13:33:58;6.53;;;2.10;;
11496;SDS011;5805;51.542;7.230;2024-02-21T13:36:24;4.72;;;2.25;;
11496;SDS011;5805;51.542;7.230;2024-02-21T13:38:50;4.72;;;2.13;;
11496;SDS011;5805;51.542;7.230;2024-02-21T13:41:15;5.32;;;2.10;;
11496;SDS011;5805;51.542;7.230;2024-02-21T13:43:41;7.55;;;2.17;;
11496;SDS011;5805;51.542;7.230;2024-02-21T13:46:08;5.50;;;1.83;;
11496;SDS011;5805;51.542;7.230;2024-02-21T13:48:34;6.57;;;2.22;;
11496;SDS011;5805;51.542;7.230;2024-02-21T13:50:59;6.53;;;2.03;;
11496;SDS011;5805;51.542;7.230;2024-02-21T13:53:25;5.68;;;2.47;;
11496;SDS011;5805;51.542;7.230;2024-02-21T13:55:51;5.18;;;2.22;;
11496;SDS011;5805;51.542;7.230;2024-02-21T13:58:16;7.20;;;1.70;;
11496;SDS011;5805;51.542;7.230;2024-02-21T14:00:42;7.65;;;1.92;;
11496;SDS011;5805;51.542;7.230;2024-02-21T14:03:09;3.25;;;1.70;;
11496;SDS011;5805;51.542;7.230;2024-02-21T14:05:35;6.40;;;2.03;;
11496;SDS011;5805;51.542;7.230;2024-02-21T14:08:00;4.05;;;2.15;;
11496;SDS011;5805;51.542;7.230;2024-02-21T14:10:26;3.38;;;1.75;;
11496;SDS011;5805;51.542;7.230;2024-02-21T14:12:52;5.68;;;2.20;;
11496;SDS011;5805;51.542;7.230;2024-02-21T14:15:18;4.78;;;2.17;;
11496;SDS011;5805;51.542;7.230;2024-02-21T14:17:43;4.60;;;1.77;;
11496;SDS011;5805;51.542;7.230;2024-02-21T14:20:11;5.00;;;2.00;;
11496;SDS011;5805;51.542;7.230;2024-02-21T14:22:36;4.60;;;1.70;;
11496;SDS011;5805;51.542;7.230;2024-02-21T14:25:02;7.25;;;2.15;;
11496;SDS011;5805;51.542;7.230;2024-02-21T14:27:29;6.05;;;2.10;;
11496;SDS011;5805;51.542;7.230;2024-02-21T14:29:54;6.38;;;2.42;;
11496;SDS011;5805;51.542;7.230;2024-02-21T14:32:20;3.90;;;1.75;;
11496;SDS011;5805;51.542;7.230;2024-02-21T14:34:46;5.32;;;1.98;;
11496;SDS011;5805;51.542;7.230;2024-02-21T14:37:13;6.43;;;2.25;;
11496;SDS011;5805;51.542;7.230;2024-02-21T14:39:38;4.43;;;1.63;;
11496;SDS011;5805;51.542;7.230;2024-02-21T14:42:04;7.20;;;2.08;;
11496;SDS011;5805;51.542;7.230;2024-02-21T14:44:30;5.03;;;2.00;;
11496;SDS011;5805;51.542;7.230;2024-02-21T14:46:56;4.60;;;1.95;;
11496;SDS011;5805;51.542;7.230;2024-02-21T14:49:21;6.80;;;2.33;;